QTR8Q LGAV-OTHH
Flight info
| Callsign | QTR8Q |
|---|---|
| Flight time | N/A |
| Altitude | 41000 |
| Route | KEA2T/03R KEA UL52 LINRO DCT VANZA DCT RASDA A16 CVO L315 HGD M872 BDB Y214 RAPMA/N0521F290 Y214 ASPUS Y432 LADBO T142 LAEEB |
| Aircraft | A359/H-SDE2E3GHIJ3J4J5LM1ORWXY/LB1D1 |
Departure
| Time | 2026-05-05 17:35 |
|---|---|
| Airport | Athens Eleftherios Venizelos International Airport (LGAV) |
Arrival
| Time | N/A |
|---|---|
| Airport | Hamad International Airport (OTHH) |
| Time | Latitude | Longitude | Altitude | Speed | Heading |
|---|---|---|---|---|---|
| 2026-05-05 17:20 | 37.93456 | 23.94718 | 296 ft | 0 kts | 309° |
| 2026-05-05 17:22 | 37.93447 | 23.94731 | 296 ft | 4 kts | 309° |
| 2026-05-05 17:23 | 37.93434 | 23.94751 | 295 ft | 3 kts | 308° |
| 2026-05-05 17:23 | 37.93420 | 23.94782 | 295 ft | 4 kts | 283° |
| 2026-05-05 17:23 | 37.93418 | 23.94815 | 296 ft | 4 kts | 268° |
| 2026-05-05 17:23 | 37.93418 | 23.94834 | 291 ft | 1 kts | 271° |
| 2026-05-05 17:24 | 37.93418 | 23.94836 | 291 ft | 0 kts | 271° |
| 2026-05-05 17:27 | 37.93417 | 23.94814 | 294 ft | 6 kts | 261° |
| 2026-05-05 17:28 | 37.93380 | 23.94753 | 295 ft | 12 kts | 222° |
| 2026-05-05 17:28 | 37.93293 | 23.94677 | 296 ft | 19 kts | 213° |
| 2026-05-05 17:28 | 37.93176 | 23.94600 | 296 ft | 20 kts | 192° |
| 2026-05-05 17:28 | 37.93062 | 23.94657 | 299 ft | 18 kts | 145° |
| 2026-05-05 17:29 | 37.92973 | 23.94636 | 299 ft | 12 kts | 218° |
| 2026-05-05 17:29 | 37.92903 | 23.94567 | 300 ft | 13 kts | 216° |
| 2026-05-05 17:29 | 37.92827 | 23.94495 | 301 ft | 14 kts | 217° |
| 2026-05-05 17:29 | 37.92744 | 23.94418 | 300 ft | 15 kts | 217° |
| 2026-05-05 17:30 | 37.92655 | 23.94333 | 301 ft | 17 kts | 217° |
| 2026-05-05 17:30 | 37.92560 | 23.94243 | 303 ft | 18 kts | 217° |
| 2026-05-05 17:30 | 37.92465 | 23.94155 | 304 ft | 4 kts | 208° |
| 2026-05-05 17:31 | 37.92460 | 23.94154 | 302 ft | 4 kts | 194° |
| 2026-05-05 17:31 | 37.92419 | 23.94190 | 302 ft | 11 kts | 116° |
| 2026-05-05 17:31 | 37.92418 | 23.94319 | 302 ft | 20 kts | 86° |
| 2026-05-05 17:31 | 37.92450 | 23.94425 | 302 ft | 11 kts | 31° |
| 2026-05-05 17:32 | 37.92476 | 23.94447 | 303 ft | 0 kts | 36° |
| 2026-05-05 17:33 | 37.92499 | 23.94468 | 302 ft | 20 kts | 37° |
| 2026-05-05 17:34 | 37.92721 | 23.94678 | 299 ft | 59 kts | 37° |
| 2026-05-05 17:34 | 37.93185 | 23.95115 | 292 ft | 114 kts | 36° |
| 2026-05-05 17:34 | 37.93986 | 23.95880 | 296 ft | 172 kts | 36° |
| 2026-05-05 17:34 | 37.94919 | 23.96765 | 879 ft | 179 kts | 37° |
| 2026-05-05 17:35 | 37.95909 | 23.97718 | 1707 ft | 181 kts | 38° |
| 2026-05-05 17:35 | 37.96979 | 23.98761 | 2102 ft | 206 kts | 37° |
| 2026-05-05 17:35 | 37.98160 | 23.99907 | 2692 ft | 217 kts | 36° |
| 2026-05-05 17:35 | 37.99356 | 24.01066 | 3554 ft | 215 kts | 36° |
| 2026-05-05 17:36 | 38.00541 | 24.02212 | 4398 ft | 214 kts | 35° |
| 2026-05-05 17:36 | 38.01714 | 24.03345 | 5193 ft | 215 kts | 34° |
| 2026-05-05 17:36 | 38.02905 | 24.04519 | 5924 ft | 221 kts | 37° |
| 2026-05-05 17:36 | 38.03955 | 24.06099 | 6293 ft | 250 kts | 58° |
| 2026-05-05 17:37 | 38.04320 | 24.08350 | 6790 ft | 275 kts | 93° |
| 2026-05-05 17:37 | 38.03630 | 24.10649 | 7612 ft | 286 kts | 120° |
| 2026-05-05 17:37 | 38.02344 | 24.12613 | 8476 ft | 294 kts | 133° |
| 2026-05-05 17:37 | 38.00793 | 24.14342 | 9356 ft | 299 kts | 139° |
| 2026-05-05 17:38 | 37.99141 | 24.15988 | 10240 ft | 304 kts | 140° |
| 2026-05-05 17:38 | 37.97454 | 24.17674 | 10704 ft | 323 kts | 139° |
| 2026-05-05 17:38 | 37.95658 | 24.19554 | 11051 ft | 345 kts | 137° |
| 2026-05-05 17:38 | 37.93790 | 24.21611 | 11408 ft | 365 kts | 136° |
| 2026-05-05 17:39 | 37.91866 | 24.23803 | 11967 ft | 376 kts | 135° |
| 2026-05-05 17:39 | 37.89920 | 24.26057 | 12696 ft | 383 kts | 135° |
| 2026-05-05 17:39 | 37.87949 | 24.28354 | 13444 ft | 388 kts | 135° |
| 2026-05-05 17:39 | 37.85939 | 24.30697 | 14197 ft | 393 kts | 135° |
| 2026-05-05 17:40 | 37.83914 | 24.33054 | 14833 ft | 399 kts | 135° |